Terminal Aerodrome Forecast
Issued by NWS Duluth, MN

Home | Current Version | Previous Version | Text Only | Print | Product List | Glossary On
Versions: 1 2 3 4 5 6 7 8 9 10 11 12 13 14 15 16 17 18 19 20 21 22 23 24 25
234
FTUS43 KDLH 290011 AAA
TAFINL
TAF AMD
KINL 290011Z 2900/2924 28006KT P6SM VCSH SCT035 BKN060
      TEMPO 2900/2902 1 1/2SM -SHRA BR BKN025
     FM290700 30006KT P6SM VCSH OVC015
     FM290900 29007KT 5SM -SHRA BR OVC008
     FM291500 31011G18KT P6SM VCSH OVC008
     FM291900 30012G20KT P6SM VCSH OVC012=

USA.gov is the U.S. government's official web portal to all federal, state and local government web resources and services.